sensor_id;sensor_type;location;lat;lon;timestamp;P1;durP1;ratioP1;P2;durP2;ratioP2
2035;SDS011;23642;42.658;23.350;2023-12-07T00:00:50;113.57;;;105.10;;
2035;SDS011;23642;42.658;23.350;2023-12-07T00:03:17;114.83;;;106.20;;
2035;SDS011;23642;42.658;23.350;2023-12-07T00:05:45;115.07;;;106.37;;
2035;SDS011;23642;42.658;23.350;2023-12-07T00:08:12;113.00;;;104.70;;
2035;SDS011;23642;42.658;23.350;2023-12-07T00:10:39;113.70;;;105.20;;
2035;SDS011;23642;42.658;23.350;2023-12-07T00:13:08;114.37;;;105.50;;
2035;SDS011;23642;42.658;23.350;2023-12-07T00:15:35;115.50;;;106.53;;
2035;SDS011;23642;42.658;23.350;2023-12-07T00:18:02;111.90;;;103.47;;
2035;SDS011;23642;42.658;23.350;2023-12-07T00:20:35;117.03;;;108.00;;
2035;SDS011;23642;42.658;23.350;2023-12-07T00:23:05;116.30;;;107.57;;
2035;SDS011;23642;42.658;23.350;2023-12-07T00:25:35;115.77;;;106.67;;
2035;SDS011;23642;42.658;23.350;2023-12-07T00:28:03;116.27;;;107.30;;
2035;SDS011;23642;42.658;23.350;2023-12-07T00:30:34;116.40;;;107.70;;
2035;SDS011;23642;42.658;23.350;2023-12-07T00:33:01;119.57;;;110.20;;
2035;SDS011;23642;42.658;23.350;2023-12-07T00:35:29;117.23;;;108.00;;
2035;SDS011;23642;42.658;23.350;2023-12-07T00:37:55;119.17;;;109.50;;
2035;SDS011;23642;42.658;23.350;2023-12-07T00:40:25;117.60;;;108.10;;
2035;SDS011;23642;42.658;23.350;2023-12-07T00:42:52;121.57;;;112.10;;
2035;SDS011;23642;42.658;23.350;2023-12-07T00:45:22;121.50;;;111.90;;
2035;SDS011;23642;42.658;23.350;2023-12-07T00:47:51;119.40;;;110.10;;
2035;SDS011;23642;42.658;23.350;2023-12-07T00:50:18;121.57;;;111.77;;
2035;SDS011;23642;42.658;23.350;2023-12-07T00:52:45;122.70;;;113.20;;
2035;SDS011;23642;42.658;23.350;2023-12-07T00:55:12;123.47;;;113.80;;
2035;SDS011;23642;42.658;23.350;2023-12-07T00:57:39;123.23;;;113.13;;
2035;SDS011;23642;42.658;23.350;2023-12-07T01:00:07;122.00;;;112.33;;
2035;SDS011;23642;42.658;23.350;2023-12-07T01:02:35;120.53;;;110.77;;
2035;SDS011;23642;42.658;23.350;2023-12-07T01:05:04;121.37;;;111.50;;
2035;SDS011;23642;42.658;23.350;2023-12-07T01:07:32;119.67;;;110.33;;
2035;SDS011;23642;42.658;23.350;2023-12-07T01:09:59;124.50;;;114.80;;
2035;SDS011;23642;42.658;23.350;2023-12-07T01:12:26;121.10;;;111.50;;
2035;SDS011;23642;42.658;23.350;2023-12-07T01:14:53;121.47;;;111.97;;
2035;SDS011;23642;42.658;23.350;2023-12-07T01:17:20;121.93;;;112.53;;
2035;SDS011;23642;42.658;23.350;2023-12-07T01:19:49;121.43;;;111.80;;
2035;SDS011;23642;42.658;23.350;2023-12-07T01:22:18;119.83;;;110.27;;
2035;SDS011;23642;42.658;23.350;2023-12-07T01:24:45;121.27;;;111.70;;
2035;SDS011;23642;42.658;23.350;2023-12-07T01:27:13;124.97;;;114.77;;
2035;SDS011;23642;42.658;23.350;2023-12-07T01:29:43;121.03;;;111.70;;
2035;SDS011;23642;42.658;23.350;2023-12-07T01:32:10;124.73;;;114.80;;
2035;SDS011;23642;42.658;23.350;2023-12-07T01:34:37;120.93;;;111.60;;
2035;SDS011;23642;42.658;23.350;2023-12-07T01:37:05;120.13;;;110.57;;
2035;SDS011;23642;42.658;23.350;2023-12-07T01:39:34;119.43;;;109.93;;
2035;SDS011;23642;42.658;23.350;2023-12-07T01:42:01;120.47;;;111.07;;
2035;SDS011;23642;42.658;23.350;2023-12-07T01:44:28;124.33;;;114.43;;
2035;SDS011;23642;42.658;23.350;2023-12-07T01:46:55;121.00;;;110.90;;
2035;SDS011;23642;42.658;23.350;2023-12-07T01:49:22;120.47;;;110.60;;
2035;SDS011;23642;42.658;23.350;2023-12-07T01:51:51;121.47;;;111.77;;
2035;SDS011;23642;42.658;23.350;2023-12-07T01:54:21;121.43;;;111.97;;
2035;SDS011;23642;42.658;23.350;2023-12-07T01:56:50;120.17;;;110.77;;
2035;SDS011;23642;42.658;23.350;2023-12-07T01:59:17;121.77;;;112.17;;
2035;SDS011;23642;42.658;23.350;2023-12-07T02:01:44;121.37;;;111.27;;
2035;SDS011;23642;42.658;23.350;2023-12-07T02:04:12;119.40;;;109.57;;
2035;SDS011;23642;42.658;23.350;2023-12-07T02:06:41;119.37;;;109.20;;
2035;SDS011;23642;42.658;23.350;2023-12-07T02:09:08;119.93;;;110.20;;
2035;SDS011;23642;42.658;23.350;2023-12-07T02:11:36;120.47;;;110.40;;
2035;SDS011;23642;42.658;23.350;2023-12-07T02:14:04;118.93;;;109.07;;
2035;SDS011;23642;42.658;23.350;2023-12-07T02:16:33;118.47;;;108.87;;
2035;SDS011;23642;42.658;23.350;2023-12-07T02:19:15;119.83;;;109.77;;
2035;SDS011;23642;42.658;23.350;2023-12-07T02:21:58;116.93;;;107.53;;
2035;SDS011;23642;42.658;23.350;2023-12-07T02:24:30;121.20;;;111.00;;
2035;SDS011;23642;42.658;23.350;2023-12-07T02:27:02;116.50;;;106.87;;
2035;SDS011;23642;42.658;23.350;2023-12-07T02:29:30;117.67;;;108.20;;
2035;SDS011;23642;42.658;23.350;2023-12-07T02:31:58;119.70;;;109.80;;
2035;SDS011;23642;42.658;23.350;2023-12-07T02:34:26;117.40;;;108.07;;
2035;SDS011;23642;42.658;23.350;2023-12-07T02:36:54;117.27;;;107.70;;
2035;SDS011;23642;42.658;23.350;2023-12-07T02:39:25;117.73;;;108.43;;
2035;SDS011;23642;42.658;23.350;2023-12-07T02:41:52;117.07;;;107.37;;
2035;SDS011;23642;42.658;23.350;2023-12-07T02:44:23;117.27;;;107.60;;
2035;SDS011;23642;42.658;23.350;2023-12-07T02:46:56;118.87;;;109.10;;
2035;SDS011;23642;42.658;23.350;2023-12-07T02:49:25;116.67;;;107.13;;
2035;SDS011;23642;42.658;23.350;2023-12-07T02:51:55;120.33;;;110.53;;
2035;SDS011;23642;42.658;23.350;2023-12-07T02:54:22;120.13;;;109.97;;
2035;SDS011;23642;42.658;23.350;2023-12-07T02:56:49;121.33;;;111.27;;
2035;SDS011;23642;42.658;23.350;2023-12-07T02:59:16;117.23;;;107.73;;
2035;SDS011;23642;42.658;23.350;2023-12-07T03:01:46;120.03;;;110.10;;
2035;SDS011;23642;42.658;23.350;2023-12-07T03:04:13;119.63;;;109.50;;
2035;SDS011;23642;42.658;23.350;2023-12-07T03:06:43;119.50;;;109.60;;
2035;SDS011;23642;42.658;23.350;2023-12-07T03:09:11;119.60;;;109.80;;
2035;SDS011;23642;42.658;23.350;2023-12-07T03:11:39;116.87;;;107.20;;
2035;SDS011;23642;42.658;23.350;2023-12-07T03:14:07;116.23;;;107.33;;
2035;SDS011;23642;42.658;23.350;2023-12-07T03:16:34;119.33;;;110.03;;
2035;SDS011;23642;42.658;23.350;2023-12-07T03:19:05;119.57;;;110.07;;
2035;SDS011;23642;42.658;23.350;2023-12-07T03:21:33;118.07;;;108.37;;
2035;SDS011;23642;42.658;23.350;2023-12-07T03:24:06;118.37;;;108.97;;
2035;SDS011;23642;42.658;23.350;2023-12-07T03:26:36;121.17;;;111.40;;
2035;SDS011;23642;42.658;23.350;2023-12-07T03:29:04;118.20;;;108.93;;
2035;SDS011;23642;42.658;23.350;2023-12-07T03:31:31;121.70;;;111.87;;
2035;SDS011;23642;42.658;23.350;2023-12-07T03:34:12;121.77;;;111.83;;
2035;SDS011;23642;42.658;23.350;2023-12-07T03:36:46;117.40;;;108.00;;
2035;SDS011;23642;42.658;23.350;2023-12-07T03:39:15;122.20;;;112.27;;
2035;SDS011;23642;42.658;23.350;2023-12-07T03:41:47;122.57;;;113.07;;
2035;SDS011;23642;42.658;23.350;2023-12-07T03:44:15;121.93;;;112.30;;
2035;SDS011;23642;42.658;23.350;2023-12-07T03:46:42;119.93;;;110.43;;
2035;SDS011;23642;42.658;23.350;2023-12-07T03:49:10;115.13;;;106.27;;
2035;SDS011;23642;42.658;23.350;2023-12-07T03:51:38;121.00;;;111.20;;
2035;SDS011;23642;42.658;23.350;2023-12-07T03:54:06;118.97;;;109.57;;
2035;SDS011;23642;42.658;23.350;2023-12-07T03:56:34;121.90;;;111.97;;
2035;SDS011;23642;42.658;23.350;2023-12-07T03:59:02;119.07;;;109.87;;
2035;SDS011;23642;42.658;23.350;2023-12-07T04:01:33;122.60;;;113.07;;
2035;SDS011;23642;42.658;23.350;2023-12-07T04:04:00;121.63;;;111.87;;
2035;SDS011;23642;42.658;23.350;2023-12-07T04:06:29;121.37;;;111.73;;
2035;SDS011;23642;42.658;23.350;2023-12-07T04:08:58;123.70;;;113.40;;
2035;SDS011;23642;42.658;23.350;2023-12-07T04:11:25;122.13;;;112.37;;
2035;SDS011;23642;42.658;23.350;2023-12-07T04:13:52;121.50;;;112.07;;
2035;SDS011;23642;42.658;23.350;2023-12-07T04:16:20;120.87;;;111.37;;
2035;SDS011;23642;42.658;23.350;2023-12-07T04:18:48;124.90;;;115.10;;
2035;SDS011;23642;42.658;23.350;2023-12-07T04:21:17;120.53;;;110.93;;
2035;SDS011;23642;42.658;23.350;2023-12-07T04:23:45;123.27;;;113.67;;
2035;SDS011;23642;42.658;23.350;2023-12-07T04:26:15;122.53;;;112.83;;
2035;SDS011;23642;42.658;23.350;2023-12-07T04:28:43;120.83;;;111.40;;
2035;SDS011;23642;42.658;23.350;2023-12-07T04:31:10;120.73;;;111.50;;
2035;SDS011;23642;42.658;23.350;2023-12-07T04:33:37;124.50;;;114.60;;
2035;SDS011;23642;42.658;23.350;2023-12-07T04:36:05;122.90;;;113.10;;
2035;SDS011;23642;42.658;23.350;2023-12-07T04:38:33;123.43;;;113.87;;
2035;SDS011;23642;42.658;23.350;2023-12-07T04:41:02;121.50;;;112.30;;
2035;SDS011;23642;42.658;23.350;2023-12-07T04:43:29;122.13;;;112.63;;
2035;SDS011;23642;42.658;23.350;2023-12-07T04:45:56;121.03;;;111.80;;
2035;SDS011;23642;42.658;23.350;2023-12-07T04:48:23;125.07;;;115.40;;
2035;SDS011;23642;42.658;23.350;2023-12-07T04:50:51;122.33;;;112.90;;
2035;SDS011;23642;42.658;23.350;2023-12-07T04:53:18;123.90;;;114.40;;
2035;SDS011;23642;42.658;23.350;2023-12-07T04:55:45;121.87;;;112.63;;
2035;SDS011;23642;42.658;23.350;2023-12-07T04:58:16;126.43;;;116.57;;
2035;SDS011;23642;42.658;23.350;2023-12-07T05:00:47;125.20;;;115.50;;
2035;SDS011;23642;42.658;23.350;2023-12-07T05:03:14;122.37;;;112.87;;
2035;SDS011;23642;42.658;23.350;2023-12-07T05:05:41;127.40;;;117.40;;
2035;SDS011;23642;42.658;23.350;2023-12-07T05:08:08;126.10;;;116.40;;
2035;SDS011;23642;42.658;23.350;2023-12-07T05:10:38;124.10;;;114.43;;
2035;SDS011;23642;42.658;23.350;2023-12-07T05:13:05;122.53;;;113.30;;
2035;SDS011;23642;42.658;23.350;2023-12-07T05:15:37;124.87;;;115.47;;
2035;SDS011;23642;42.658;23.350;2023-12-07T05:18:04;123.77;;;114.50;;
2035;SDS011;23642;42.658;23.350;2023-12-07T05:20:32;122.17;;;113.23;;
2035;SDS011;23642;42.658;23.350;2023-12-07T05:23:04;123.47;;;114.37;;
2035;SDS011;23642;42.658;23.350;2023-12-07T05:25:31;125.10;;;115.83;;
2035;SDS011;23642;42.658;23.350;2023-12-07T05:27:59;124.80;;;115.50;;
2035;SDS011;23642;42.658;23.350;2023-12-07T05:30:26;121.53;;;112.90;;
2035;SDS011;23642;42.658;23.350;2023-12-07T05:32:54;123.30;;;114.10;;
2035;SDS011;23642;42.658;23.350;2023-12-07T05:35:21;123.43;;;114.07;;
2035;SDS011;23642;42.658;23.350;2023-12-07T05:37:50;119.03;;;110.37;;
2035;SDS011;23642;42.658;23.350;2023-12-07T05:40:17;122.47;;;113.60;;
2035;SDS011;23642;42.658;23.350;2023-12-07T05:42:44;122.97;;;114.03;;
2035;SDS011;23642;42.658;23.350;2023-12-07T05:45:15;122.53;;;113.50;;
2035;SDS011;23642;42.658;23.350;2023-12-07T05:47:42;122.77;;;113.77;;
2035;SDS011;23642;42.658;23.350;2023-12-07T05:50:12;125.60;;;116.13;;
2035;SDS011;23642;42.658;23.350;2023-12-07T05:52:40;123.87;;;114.67;;
2035;SDS011;23642;42.658;23.350;2023-12-07T05:55:07;124.17;;;114.57;;
2035;SDS011;23642;42.658;23.350;2023-12-07T05:57:34;124.03;;;114.70;;
2035;SDS011;23642;42.658;23.350;2023-12-07T06:00:01;125.07;;;115.43;;
2035;SDS011;23642;42.658;23.350;2023-12-07T06:02:29;123.07;;;113.87;;
2035;SDS011;23642;42.658;23.350;2023-12-07T06:04:56;124.83;;;115.33;;
2035;SDS011;23642;42.658;23.350;2023-12-07T06:07:25;124.30;;;114.70;;
2035;SDS011;23642;42.658;23.350;2023-12-07T06:09:52;125.47;;;115.97;;
2035;SDS011;23642;42.658;23.350;2023-12-07T06:12:19;120.40;;;111.50;;
2035;SDS011;23642;42.658;23.350;2023-12-07T06:14:47;124.07;;;114.73;;
2035;SDS011;23642;42.658;23.350;2023-12-07T06:17:17;124.07;;;114.70;;
2035;SDS011;23642;42.658;23.350;2023-12-07T06:19:46;126.30;;;116.70;;
2035;SDS011;23642;42.658;23.350;2023-12-07T06:22:13;123.30;;;114.30;;
2035;SDS011;23642;42.658;23.350;2023-12-07T06:24:45;122.30;;;113.30;;
2035;SDS011;23642;42.658;23.350;2023-12-07T06:27:12;123.57;;;114.30;;
2035;SDS011;23642;42.658;23.350;2023-12-07T06:29:40;124.20;;;114.83;;
2035;SDS011;23642;42.658;23.350;2023-12-07T06:32:07;124.47;;;115.37;;
2035;SDS011;23642;42.658;23.350;2023-12-07T06:34:39;126.80;;;117.33;;
2035;SDS011;23642;42.658;23.350;2023-12-07T06:37:13;124.80;;;115.07;;
2035;SDS011;23642;42.658;23.350;2023-12-07T06:39:54;127.67;;;118.37;;
2035;SDS011;23642;42.658;23.350;2023-12-07T06:42:26;125.23;;;115.77;;
2035;SDS011;23642;42.658;23.350;2023-12-07T06:44:56;125.07;;;116.23;;
2035;SDS011;23642;42.658;23.350;2023-12-07T06:47:24;126.27;;;117.07;;
2035;SDS011;23642;42.658;23.350;2023-12-07T06:50:00;123.47;;;114.47;;
2035;SDS011;23642;42.658;23.350;2023-12-07T06:52:36;127.47;;;117.90;;
2035;SDS011;23642;42.658;23.350;2023-12-07T06:55:08;124.83;;;115.77;;
2035;SDS011;23642;42.658;23.350;2023-12-07T06:57:35;125.70;;;116.60;;
2035;SDS011;23642;42.658;23.350;2023-12-07T07:00:03;123.70;;;114.80;;
2035;SDS011;23642;42.658;23.350;2023-12-07T07:02:35;123.83;;;114.70;;
2035;SDS011;23642;42.658;23.350;2023-12-07T07:05:03;123.07;;;114.27;;
2035;SDS011;23642;42.658;23.350;2023-12-07T07:07:30;122.33;;;113.40;;
2035;SDS011;23642;42.658;23.350;2023-12-07T07:09:58;123.33;;;114.53;;
2035;SDS011;23642;42.658;23.350;2023-12-07T07:12:26;126.40;;;117.03;;
2035;SDS011;23642;42.658;23.350;2023-12-07T07:14:56;125.20;;;115.87;;
2035;SDS011;23642;42.658;23.350;2023-12-07T07:17:23;126.10;;;117.20;;
2035;SDS011;23642;42.658;23.350;2023-12-07T07:19:51;125.90;;;116.97;;
2035;SDS011;23642;42.658;23.350;2023-12-07T07:22:19;122.97;;;114.43;;
2035;SDS011;23642;42.658;23.350;2023-12-07T07:24:46;125.63;;;116.50;;
2035;SDS011;23642;42.658;23.350;2023-12-07T07:27:13;124.63;;;115.33;;
2035;SDS011;23642;42.658;23.350;2023-12-07T07:29:41;125.30;;;116.33;;
2035;SDS011;23642;42.658;23.350;2023-12-07T07:32:09;127.30;;;118.30;;
2035;SDS011;23642;42.658;23.350;2023-12-07T07:34:36;126.30;;;117.47;;
2035;SDS011;23642;42.658;23.350;2023-12-07T07:37:04;128.40;;;119.30;;
2035;SDS011;23642;42.658;23.350;2023-12-07T07:39:32;127.43;;;118.27;;
2035;SDS011;23642;42.658;23.350;2023-12-07T07:42:00;127.63;;;118.53;;
2035;SDS011;23642;42.658;23.350;2023-12-07T07:44:27;130.67;;;121.37;;
2035;SDS011;23642;42.658;23.350;2023-12-07T07:46:55;130.73;;;121.57;;
2035;SDS011;23642;42.658;23.350;2023-12-07T07:49:22;131.47;;;121.80;;
2035;SDS011;23642;42.658;23.350;2023-12-07T07:51:49;130.03;;;120.70;;
2035;SDS011;23642;42.658;23.350;2023-12-07T07:54:16;127.03;;;118.10;;
2035;SDS011;23642;42.658;23.350;2023-12-07T07:56:43;127.13;;;117.83;;
2035;SDS011;23642;42.658;23.350;2023-12-07T07:59:10;128.60;;;119.40;;
2035;SDS011;23642;42.658;23.350;2023-12-07T08:01:40;126.53;;;117.27;;
2035;SDS011;23642;42.658;23.350;2023-12-07T08:04:10;124.57;;;115.97;;
2035;SDS011;23642;42.658;23.350;2023-12-07T08:06:37;125.90;;;116.67;;
2035;SDS011;23642;42.658;23.350;2023-12-07T08:09:04;119.83;;;111.30;;
2035;SDS011;23642;42.658;23.350;2023-12-07T08:11:31;118.87;;;110.80;;
2035;SDS011;23642;42.658;23.350;2023-12-07T08:14:07;116.13;;;108.33;;
2035;SDS011;23642;42.658;23.350;2023-12-07T08:16:34;119.83;;;112.00;;
2035;SDS011;23642;42.658;23.350;2023-12-07T08:19:01;116.50;;;108.60;;
2035;SDS011;23642;42.658;23.350;2023-12-07T08:21:29;116.50;;;108.70;;
2035;SDS011;23642;42.658;23.350;2023-12-07T08:23:59;115.90;;;108.10;;
2035;SDS011;23642;42.658;23.350;2023-12-07T08:26:26;115.63;;;107.90;;
2035;SDS011;23642;42.658;23.350;2023-12-07T08:28:53;116.37;;;108.70;;
2035;SDS011;23642;42.658;23.350;2023-12-07T08:31:20;121.27;;;113.30;;
2035;SDS011;23642;42.658;23.350;2023-12-07T08:33:49;119.03;;;111.20;;
2035;SDS011;23642;42.658;23.350;2023-12-07T08:36:16;119.90;;;112.17;;
2035;SDS011;23642;42.658;23.350;2023-12-07T08:38:44;116.90;;;109.40;;
2035;SDS011;23642;42.658;23.350;2023-12-07T08:41:11;117.53;;;110.03;;
2035;SDS011;23642;42.658;23.350;2023-12-07T08:43:38;118.27;;;110.43;;
2035;SDS011;23642;42.658;23.350;2023-12-07T08:46:05;116.90;;;109.30;;
2035;SDS011;23642;42.658;23.350;2023-12-07T08:48:33;113.40;;;106.10;;
2035;SDS011;23642;42.658;23.350;2023-12-07T08:51:01;114.70;;;107.00;;
2035;SDS011;23642;42.658;23.350;2023-12-07T08:53:28;114.37;;;106.93;;
2035;SDS011;23642;42.658;23.350;2023-12-07T08:55:57;110.40;;;103.47;;
2035;SDS011;23642;42.658;23.350;2023-12-07T08:58:24;112.73;;;105.43;;
2035;SDS011;23642;42.658;23.350;2023-12-07T09:00:50;116.03;;;108.67;;
2035;SDS011;23642;42.658;23.350;2023-12-07T09:03:18;115.70;;;108.37;;
2035;SDS011;23642;42.658;23.350;2023-12-07T09:05:50;112.73;;;105.53;;
2035;SDS011;23642;42.658;23.350;2023-12-07T09:08:19;111.87;;;104.77;;
2035;SDS011;23642;42.658;23.350;2023-12-07T09:10:46;110.97;;;103.97;;
2035;SDS011;23642;42.658;23.350;2023-12-07T09:13:16;111.13;;;104.07;;
2035;SDS011;23642;42.658;23.350;2023-12-07T09:15:44;110.77;;;103.77;;
2035;SDS011;23642;42.658;23.350;2023-12-07T09:18:11;108.37;;;101.57;;
2035;SDS011;23642;42.658;23.350;2023-12-07T09:20:39;111.17;;;104.17;;
2035;SDS011;23642;42.658;23.350;2023-12-07T09:23:10;110.80;;;103.90;;
2035;SDS011;23642;42.658;23.350;2023-12-07T09:25:38;107.97;;;101.20;;
2035;SDS011;23642;42.658;23.350;2023-12-07T09:28:05;108.23;;;101.43;;
2035;SDS011;23642;42.658;23.350;2023-12-07T09:30:35;108.70;;;101.77;;
2035;SDS011;23642;42.658;23.350;2023-12-07T09:33:09;106.03;;;99.13;;
2035;SDS011;23642;42.658;23.350;2023-12-07T09:35:36;107.27;;;100.57;;
2035;SDS011;23642;42.658;23.350;2023-12-07T09:38:04;105.60;;;98.90;;
2035;SDS011;23642;42.658;23.350;2023-12-07T09:40:32;108.53;;;101.77;;
2035;SDS011;23642;42.658;23.350;2023-12-07T09:43:01;106.40;;;99.73;;
2035;SDS011;23642;42.658;23.350;2023-12-07T09:45:28;107.33;;;100.67;;
2035;SDS011;23642;42.658;23.350;2023-12-07T09:47:57;106.47;;;99.87;;
2035;SDS011;23642;42.658;23.350;2023-12-07T09:50:26;104.30;;;97.80;;
2035;SDS011;23642;42.658;23.350;2023-12-07T09:52:54;103.20;;;96.80;;
2035;SDS011;23642;42.658;23.350;2023-12-07T09:55:23;104.50;;;97.90;;
2035;SDS011;23642;42.658;23.350;2023-12-07T09:57:51;104.17;;;97.73;;
2035;SDS011;23642;42.658;23.350;2023-12-07T10:00:22;107.83;;;101.13;;
2035;SDS011;23642;42.658;23.350;2023-12-07T10:02:52;106.33;;;99.37;;
2035;SDS011;23642;42.658;23.350;2023-12-07T10:05:21;105.30;;;98.70;;
2035;SDS011;23642;42.658;23.350;2023-12-07T10:07:48;104.87;;;98.27;;
2035;SDS011;23642;42.658;23.350;2023-12-07T10:10:17;103.77;;;97.20;;
2035;SDS011;23642;42.658;23.350;2023-12-07T10:12:45;103.53;;;97.03;;
2035;SDS011;23642;42.658;23.350;2023-12-07T10:15:12;105.33;;;98.83;;
2035;SDS011;23642;42.658;23.350;2023-12-07T10:17:47;104.17;;;97.63;;
2035;SDS011;23642;42.658;23.350;2023-12-07T10:20:15;103.50;;;97.00;;
2035;SDS011;23642;42.658;23.350;2023-12-07T10:22:50;103.60;;;97.10;;
2035;SDS011;23642;42.658;23.350;2023-12-07T10:25:27;104.97;;;98.37;;
2035;SDS011;23642;42.658;23.350;2023-12-07T10:27:55;108.13;;;101.50;;
2035;SDS011;23642;42.658;23.350;2023-12-07T10:30:22;105.63;;;99.00;;
2035;SDS011;23642;42.658;23.350;2023-12-07T10:32:51;103.83;;;97.03;;
2035;SDS011;23642;42.658;23.350;2023-12-07T10:35:18;102.20;;;95.80;;
2035;SDS011;23642;42.658;23.350;2023-12-07T10:37:46;103.70;;;97.23;;
2035;SDS011;23642;42.658;23.350;2023-12-07T10:40:14;104.03;;;97.43;;
2035;SDS011;23642;42.658;23.350;2023-12-07T10:42:47;101.13;;;94.67;;
2035;SDS011;23642;42.658;23.350;2023-12-07T10:45:15;101.57;;;95.07;;
2035;SDS011;23642;42.658;23.350;2023-12-07T10:47:43;99.63;;;93.37;;
2035;SDS011;23642;42.658;23.350;2023-12-07T10:50:11;101.57;;;95.20;;
2035;SDS011;23642;42.658;23.350;2023-12-07T10:52:44;104.57;;;98.07;;
2035;SDS011;23642;42.658;23.350;2023-12-07T10:55:17;103.30;;;96.90;;
2035;SDS011;23642;42.658;23.350;2023-12-07T10:57:48;97.67;;;91.57;;
2035;SDS011;23642;42.658;23.350;2023-12-07T11:00:15;98.60;;;92.40;;
2035;SDS011;23642;42.658;23.350;2023-12-07T11:02:43;96.00;;;89.90;;
2035;SDS011;23642;42.658;23.350;2023-12-07T11:05:11;97.93;;;91.82;;
2035;SDS011;23642;42.658;23.350;2023-12-07T11:07:40;97.00;;;90.95;;
2035;SDS011;23642;42.658;23.350;2023-12-07T11:10:15;94.53;;;88.67;;
2035;SDS011;23642;42.658;23.350;2023-12-07T11:12:49;98.00;;;91.90;;
2035;SDS011;23642;42.658;23.350;2023-12-07T11:15:22;100.25;;;93.95;;
2035;SDS011;23642;42.658;23.350;2023-12-07T11:17:51;101.18;;;94.78;;
2035;SDS011;23642;42.658;23.350;2023-12-07T11:20:20;97.75;;;91.65;;
2035;SDS011;23642;42.658;23.350;2023-12-07T11:22:49;97.63;;;91.53;;
2035;SDS011;23642;42.658;23.350;2023-12-07T11:25:17;98.95;;;92.80;;
2035;SDS011;23642;42.658;23.350;2023-12-07T11:27:45;101.38;;;95.18;;
2035;SDS011;23642;42.658;23.350;2023-12-07T11:30:15;100.45;;;94.18;;
2035;SDS011;23642;42.658;23.350;2023-12-07T11:32:43;101.03;;;94.85;;
2035;SDS011;23642;42.658;23.350;2023-12-07T11:35:14;97.55;;;91.55;;
2035;SDS011;23642;42.658;23.350;2023-12-07T11:40:31;97.00;;;91.00;;
2035;SDS011;23642;42.658;23.350;2023-12-07T11:43:00;97.78;;;91.80;;
2035;SDS011;23642;42.658;23.350;2023-12-07T11:45:39;98.40;;;92.37;;
2035;SDS011;23642;42.658;23.350;2023-12-07T11:48:07;95.30;;;89.30;;
2035;SDS011;23642;42.658;23.350;2023-12-07T11:53:26;95.72;;;89.63;;
2035;SDS011;23642;42.658;23.350;2023-12-07T11:55:56;99.38;;;93.18;;
2035;SDS011;23642;42.658;23.350;2023-12-07T11:58:26;100.85;;;94.35;;
2035;SDS011;23642;42.658;23.350;2023-12-07T12:00:59;102.40;;;96.10;;
2035;SDS011;23642;42.658;23.350;2023-12-07T12:03:27;100.90;;;94.57;;
2035;SDS011;23642;42.658;23.350;2023-12-07T12:05:54;100.37;;;93.87;;
2035;SDS011;23642;42.658;23.350;2023-12-07T12:08:22;97.50;;;91.30;;
2035;SDS011;23642;42.658;23.350;2023-12-07T12:10:50;102.72;;;96.28;;
2035;SDS011;23642;42.658;23.350;2023-12-07T12:13:19;101.20;;;94.90;;
2035;SDS011;23642;42.658;23.350;2023-12-07T12:15:47;99.10;;;93.05;;
2035;SDS011;23642;42.658;23.350;2023-12-07T12:18:14;99.07;;;92.63;;
2035;SDS011;23642;42.658;23.350;2023-12-07T12:20:44;101.30;;;95.00;;
2035;SDS011;23642;42.658;23.350;2023-12-07T12:23:11;99.17;;;93.07;;
2035;SDS011;23642;42.658;23.350;2023-12-07T12:25:40;98.60;;;92.40;;
2035;SDS011;23642;42.658;23.350;2023-12-07T12:28:08;97.47;;;91.37;;
2035;SDS011;23642;42.658;23.350;2023-12-07T12:30:37;96.82;;;90.63;;
2035;SDS011;23642;42.658;23.350;2023-12-07T12:33:14;97.00;;;90.70;;
2035;SDS011;23642;42.658;23.350;2023-12-07T12:35:41;97.77;;;91.67;;
2035;SDS011;23642;42.658;23.350;2023-12-07T12:38:11;99.50;;;93.07;;
2035;SDS011;23642;42.658;23.350;2023-12-07T12:40:46;97.13;;;90.93;;
2035;SDS011;23642;42.658;23.350;2023-12-07T12:43:13;100.80;;;94.40;;
2035;SDS011;23642;42.658;23.350;2023-12-07T12:45:40;99.85;;;93.43;;
2035;SDS011;23642;42.658;23.350;2023-12-07T12:48:12;102.95;;;96.53;;
2035;SDS011;23642;42.658;23.350;2023-12-07T12:50:39;95.35;;;89.35;;
2035;SDS011;23642;42.658;23.350;2023-12-07T12:53:07;96.63;;;90.55;;
2035;SDS011;23642;42.658;23.350;2023-12-07T12:55:36;97.00;;;90.90;;
2035;SDS011;23642;42.658;23.350;2023-12-07T12:58:07;96.53;;;90.47;;
2035;SDS011;23642;42.658;23.350;2023-12-07T13:00:35;92.15;;;86.45;;
2035;SDS011;23642;42.658;23.350;2023-12-07T13:03:05;93.88;;;88.07;;
2035;SDS011;23642;42.658;23.350;2023-12-07T13:05:34;96.93;;;90.90;;
2035;SDS011;23642;42.658;23.350;2023-12-07T13:08:02;94.78;;;88.88;;
2035;SDS011;23642;42.658;23.350;2023-12-07T13:10:29;97.70;;;91.68;;
2035;SDS011;23642;42.658;23.350;2023-12-07T13:12:56;94.55;;;88.65;;
2035;SDS011;23642;42.658;23.350;2023-12-07T13:15:23;93.53;;;87.70;;
2035;SDS011;23642;42.658;23.350;2023-12-07T13:17:50;93.40;;;87.50;;
2035;SDS011;23642;42.658;23.350;2023-12-07T13:20:22;91.53;;;85.72;;
2035;SDS011;23642;42.658;23.350;2023-12-07T13:22:51;92.68;;;86.78;;
2035;SDS011;23642;42.658;23.350;2023-12-07T13:25:18;91.63;;;85.93;;
2035;SDS011;23642;42.658;23.350;2023-12-07T13:27:45;91.05;;;85.38;;
2035;SDS011;23642;42.658;23.350;2023-12-07T13:30:16;92.25;;;86.45;;
2035;SDS011;23642;42.658;23.350;2023-12-07T13:32:54;102.75;;;96.32;;
2035;SDS011;23642;42.658;23.350;2023-12-07T13:35:21;100.65;;;94.47;;
2035;SDS011;23642;42.658;23.350;2023-12-07T13:37:50;98.38;;;92.07;;
2035;SDS011;23642;42.658;23.350;2023-12-07T13:40:18;98.45;;;92.15;;
2035;SDS011;23642;42.658;23.350;2023-12-07T13:42:46;95.13;;;88.95;;
2035;SDS011;23642;42.658;23.350;2023-12-07T13:45:13;96.45;;;90.35;;
2035;SDS011;23642;42.658;23.350;2023-12-07T13:47:41;93.43;;;87.25;;
2035;SDS011;23642;42.658;23.350;2023-12-07T13:50:09;97.30;;;91.15;;
2035;SDS011;23642;42.658;23.350;2023-12-07T13:52:38;100.40;;;94.00;;
2035;SDS011;23642;42.658;23.350;2023-12-07T13:55:07;98.00;;;91.80;;
2035;SDS011;23642;42.658;23.350;2023-12-07T13:57:34;98.75;;;92.43;;
2035;SDS011;23642;42.658;23.350;2023-12-07T14:00:01;91.03;;;85.32;;
2035;SDS011;23642;42.658;23.350;2023-12-07T14:02:29;96.28;;;89.97;;
2035;SDS011;23642;42.658;23.350;2023-12-07T14:04:56;94.55;;;88.45;;
2035;SDS011;23642;42.658;23.350;2023-12-07T14:07:23;94.32;;;88.32;;
2035;SDS011;23642;42.658;23.350;2023-12-07T14:09:51;94.45;;;88.13;;
2035;SDS011;23642;42.658;23.350;2023-12-07T14:12:20;92.40;;;86.20;;
2035;SDS011;23642;42.658;23.350;2023-12-07T14:14:48;93.22;;;87.22;;
2035;SDS011;23642;42.658;23.350;2023-12-07T14:17:19;95.45;;;89.25;;